createdAt,value
2022-10-19T00:01:36.840Z,13.90
2022-10-19T00:04:24.330Z,13.90
2022-10-19T00:07:11.824Z,13.90
2022-10-19T00:09:59.245Z,13.90
2022-10-19T00:15:41.394Z,14.00
2022-10-19T00:18:28.994Z,13.90
2022-10-19T00:21:19.860Z,13.90
2022-10-19T00:24:08.989Z,13.90
2022-10-19T00:26:56.384Z,13.90
2022-10-19T00:29:43.817Z,13.90
2022-10-19T00:32:31.400Z,13.80
2022-10-19T00:35:19.024Z,13.90
2022-10-19T00:38:06.805Z,13.90
2022-10-19T00:40:54.318Z,13.90
2022-10-19T00:43:56.334Z,13.90
2022-10-19T00:46:48.884Z,13.90
2022-10-19T00:49:43.965Z,13.90
2022-10-19T00:52:32.447Z,13.90
2022-10-19T00:55:21.389Z,14.00
2022-10-19T00:58:10.155Z,14.00
2022-10-19T01:01:01.662Z,14.10
2022-10-19T01:03:49.419Z,14.10
2022-10-19T01:06:37.397Z,14.10
2022-10-19T01:09:24.964Z,14.00
2022-10-19T01:12:45.234Z,14.00
2022-10-19T01:16:05.448Z,13.90
2022-10-19T01:19:19.232Z,13.90
2022-10-19T01:22:39.921Z,13.90
2022-10-19T01:25:36.594Z,14.00
2022-10-19T01:29:08.410Z,14.10
2022-10-19T01:32:13.280Z,14.00
2022-10-19T01:35:12.708Z,14.10
2022-10-19T01:38:25.103Z,14.10
2022-10-19T01:41:21.799Z,14.10
2022-10-19T01:44:48.368Z,14.10
2022-10-19T01:47:53.105Z,14.00
2022-10-19T01:51:00.104Z,14.00
2022-10-19T01:53:54.175Z,14.00
2022-10-19T01:56:46.799Z,14.00
2022-10-19T01:59:35.399Z,14.00
2022-10-19T02:02:26.271Z,14.00
2022-10-19T02:05:16.790Z,14.00
2022-10-19T02:08:17.241Z,14.00
2022-10-19T02:11:05.939Z,14.00
2022-10-19T02:14:11.589Z,14.00
2022-10-19T02:17:14.355Z,14.00
2022-10-19T02:20:03.870Z,14.00
2022-10-19T02:22:51.309Z,14.00
2022-10-19T02:25:38.823Z,14.00
2022-10-19T02:28:29.115Z,14.00
2022-10-19T02:31:17.154Z,14.00
2022-10-19T02:34:06.029Z,14.00
2022-10-19T02:36:54.216Z,14.00
2022-10-19T02:39:42.278Z,14.00
2022-10-19T02:42:44.110Z,14.00
2022-10-19T02:45:37.398Z,13.90
2022-10-19T02:48:29.734Z,13.90
2022-10-19T02:51:38.323Z,13.90
2022-10-19T02:54:26.231Z,13.90
2022-10-19T02:57:22.446Z,13.90
2022-10-19T03:00:11.395Z,14.00
2022-10-19T03:02:58.845Z,14.00
2022-10-19T03:05:46.266Z,14.00
2022-10-19T03:08:33.707Z,14.00
2022-10-19T03:11:21.260Z,13.90
2022-10-19T03:14:08.725Z,13.90
2022-10-19T03:16:56.180Z,13.90
2022-10-19T03:19:43.731Z,13.90
2022-10-19T03:22:31.207Z,13.90
2022-10-19T03:25:18.944Z,13.90
2022-10-19T03:28:06.460Z,13.90
2022-10-19T03:30:54.174Z,13.80
2022-10-19T03:33:41.625Z,13.80
2022-10-19T03:36:35.830Z,13.80
2022-10-19T03:39:23.267Z,13.80
2022-10-19T03:42:10.700Z,13.70
2022-10-19T03:44:58.203Z,13.70
2022-10-19T03:47:52.325Z,13.60
2022-10-19T03:50:39.739Z,13.60
2022-10-19T03:53:27.664Z,13.60
2022-10-19T03:56:19.122Z,13.60
2022-10-19T03:59:07.588Z,13.60
2022-10-19T04:01:55.050Z,13.60
2022-10-19T04:04:42.527Z,13.60
2022-10-19T04:07:30.050Z,13.60
2022-10-19T04:10:17.560Z,13.60
2022-10-19T04:13:04.943Z,13.70
2022-10-19T04:15:52.429Z,13.70
2022-10-19T04:18:39.774Z,13.80
2022-10-19T04:21:34.210Z,13.80
2022-10-19T04:24:21.699Z,13.80
2022-10-19T04:27:09.141Z,13.80
2022-10-19T04:29:56.589Z,13.80
2022-10-19T04:32:44.067Z,13.80
2022-10-19T04:35:31.514Z,13.70
2022-10-19T04:38:18.995Z,13.70
2022-10-19T04:41:13.839Z,13.70
2022-10-19T04:44:05.040Z,13.70
2022-10-19T04:46:52.501Z,13.70
2022-10-19T04:49:39.964Z,13.80
2022-10-19T04:52:27.409Z,13.80
2022-10-19T04:55:15.034Z,13.80
2022-10-19T04:58:02.429Z,13.80
2022-10-19T05:00:50.343Z,13.80
2022-10-19T05:03:38.195Z,13.90
2022-10-19T05:06:25.809Z,13.90
2022-10-19T05:09:13.630Z,13.90
2022-10-19T05:12:01.064Z,13.90
2022-10-19T05:14:48.500Z,13.90
2022-10-19T05:17:36.626Z,13.90
2022-10-19T05:20:25.025Z,13.90
2022-10-19T05:23:12.485Z,13.90
2022-10-19T05:26:13.651Z,13.90
2022-10-19T05:29:02.948Z,13.90
2022-10-19T05:31:50.660Z,13.90
2022-10-19T05:34:38.119Z,13.90
2022-10-19T05:37:25.933Z,13.90
2022-10-19T05:40:13.380Z,13.90
2022-10-19T05:43:00.739Z,13.80
2022-10-19T05:45:48.247Z,13.80
2022-10-19T05:48:36.045Z,13.80
2022-10-19T05:51:25.369Z,13.80
2022-10-19T05:54:14.040Z,13.80
2022-10-19T05:57:02.814Z,13.80
2022-10-19T05:59:50.195Z,13.80
2022-10-19T06:02:37.585Z,13.90
2022-10-19T06:05:25.055Z,13.90
2022-10-19T06:08:12.539Z,13.90
2022-10-19T06:11:18.960Z,13.90
2022-10-19T06:14:15.716Z,14.00
2022-10-19T06:17:03.220Z,14.00
2022-10-19T06:19:50.665Z,14.00
2022-10-19T06:22:38.070Z,14.00
2022-10-19T06:25:25.580Z,14.10
2022-10-19T06:28:13.529Z,14.20
2022-10-19T06:31:01.455Z,14.20
2022-10-19T06:33:49.636Z,14.20
2022-10-19T06:36:37.361Z,14.30
2022-10-19T06:39:24.824Z,14.30
2022-10-19T06:42:12.219Z,14.40
2022-10-19T06:44:59.775Z,14.40
2022-10-19T06:50:39.769Z,14.50
2022-10-19T06:53:29.199Z,14.70
2022-10-19T06:56:16.960Z,14.70
2022-10-19T06:59:04.938Z,14.80
2022-10-19T07:01:52.302Z,14.80
2022-10-19T07:04:39.740Z,14.90
2022-10-19T07:07:27.246Z,15.00
2022-10-19T07:10:14.864Z,15.10
2022-10-19T07:13:02.342Z,15.10
2022-10-19T07:15:56.309Z,15.10
2022-10-19T07:18:43.821Z,15.20
2022-10-19T07:21:32.049Z,15.20
2022-10-19T07:24:20.124Z,15.30
2022-10-19T07:27:07.589Z,15.30
2022-10-19T07:29:55.038Z,15.30
2022-10-19T07:32:46.741Z,15.30
2022-10-19T07:35:34.605Z,15.30
2022-10-19T07:38:22.014Z,15.20
2022-10-19T07:41:13.061Z,15.20
2022-10-19T07:44:01.528Z,15.20
2022-10-19T07:46:48.990Z,15.30
2022-10-19T07:49:36.475Z,15.40
2022-10-19T07:52:23.948Z,15.50
2022-10-19T07:55:11.439Z,15.50
2022-10-19T07:58:01.590Z,15.50
2022-10-19T08:00:49.093Z,15.70
2022-10-19T08:06:45.354Z,15.80
2022-10-19T08:09:52.100Z,16.00
2022-10-19T08:12:40.815Z,16.00
2022-10-19T08:15:30.328Z,16.00
2022-10-19T08:18:18.550Z,16.00
2022-10-19T08:21:06.205Z,16.10
2022-10-19T08:23:54.343Z,16.20
2022-10-19T08:26:43.276Z,16.20
2022-10-19T08:29:31.732Z,16.20
2022-10-19T08:32:19.561Z,16.20
2022-10-19T08:35:10.774Z,16.10
2022-10-19T08:37:59.155Z,16.20
2022-10-19T08:40:47.466Z,16.30
2022-10-19T08:43:43.050Z,16.30
2022-10-19T08:47:12.529Z,16.30
2022-10-19T08:50:02.866Z,16.30
2022-10-19T08:53:13.341Z,16.50
2022-10-19T08:56:26.799Z,16.60
2022-10-19T08:59:45.211Z,16.90
2022-10-19T09:03:05.280Z,17.10
2022-10-19T09:06:23.624Z,17.50
2022-10-19T09:09:14.499Z,17.70
2022-10-19T09:12:07.930Z,17.80
2022-10-19T09:15:25.294Z,17.80
2022-10-19T09:18:23.231Z,17.90
2022-10-19T09:21:30.140Z,18.00
2022-10-19T09:24:32.332Z,18.00
2022-10-19T09:27:37.824Z,18.40
2022-10-19T09:30:25.376Z,18.90
2022-10-19T09:33:28.775Z,19.30
2022-10-19T09:36:22.773Z,19.50
2022-10-19T09:39:15.429Z,19.80
2022-10-19T09:42:17.851Z,19.90
2022-10-19T09:45:53.757Z,19.90
2022-10-19T09:48:52.517Z,19.80
2022-10-19T09:51:52.904Z,19.70
2022-10-19T09:54:40.485Z,19.70
2022-10-19T09:57:28.005Z,19.60
2022-10-19T10:00:24.840Z,19.40
2022-10-19T10:03:36.476Z,19.40
2022-10-19T10:06:23.980Z,19.40
2022-10-19T10:09:19.781Z,19.30
2022-10-19T10:12:08.610Z,19.60
2022-10-19T10:14:56.585Z,19.80
2022-10-19T10:17:48.230Z,20.10
2022-10-19T10:20:36.409Z,20.30
2022-10-19T10:23:28.563Z,20.20
2022-10-19T10:26:20.022Z,20.00
2022-10-19T10:29:32.541Z,19.90
2022-10-19T10:32:21.785Z,20.00
2022-10-19T10:35:22.379Z,20.40
2022-10-19T10:38:18.147Z,20.40
2022-10-19T10:41:17.696Z,20.40
2022-10-19T10:44:20.786Z,20.30
2022-10-19T10:47:16.735Z,20.20
2022-10-19T10:50:07.435Z,20.30
2022-10-19T10:53:07.955Z,20.20
2022-10-19T10:55:58.610Z,20.20
2022-10-19T10:59:17.892Z,20.20
2022-10-19T11:02:58.690Z,20.40
2022-10-19T11:05:57.394Z,20.50
2022-10-19T11:09:06.280Z,20.60
2022-10-19T11:11:56.564Z,20.60
2022-10-19T11:14:56.609Z,20.70
2022-10-19T11:18:15.545Z,20.60
2022-10-19T11:21:14.908Z,20.60
2022-10-19T11:24:23.837Z,20.70
2022-10-19T11:27:11.318Z,20.70
2022-10-19T11:30:15.584Z,20.60
2022-10-19T11:33:27.575Z,20.60
2022-10-19T11:36:23.342Z,20.60
2022-10-19T11:39:53.270Z,20.80
2022-10-19T11:42:53.177Z,21.00
2022-10-19T11:45:59.470Z,21.20
2022-10-19T11:48:59.704Z,21.30
2022-10-19T11:52:01.713Z,21.40
2022-10-19T11:55:07.250Z,21.20
2022-10-19T11:58:28.907Z,21.40
2022-10-19T12:01:28.615Z,21.40
2022-10-19T12:04:31.755Z,21.40
2022-10-19T12:08:09.539Z,21.10
2022-10-19T12:10:59.540Z,20.70
2022-10-19T12:13:59.309Z,20.60
2022-10-19T12:16:55.414Z,20.70
2022-10-19T12:19:52.367Z,20.90
2022-10-19T12:22:40.854Z,21.00
2022-10-19T12:25:29.121Z,21.10
2022-10-19T12:28:27.942Z,21.30
2022-10-19T12:31:17.366Z,21.50
2022-10-19T12:34:07.886Z,21.50
2022-10-19T12:37:28.333Z,21.50
2022-10-19T12:40:39.915Z,21.50
2022-10-19T12:43:43.568Z,21.20
2022-10-19T12:46:39.741Z,21.20
2022-10-19T12:49:30.460Z,21.00
2022-10-19T12:52:38.320Z,20.80
2022-10-19T12:55:35.131Z,20.80
2022-10-19T12:58:24.589Z,20.80
2022-10-19T13:01:36.325Z,20.80
2022-10-19T13:04:35.739Z,20.80
2022-10-19T13:07:29.195Z,20.90
2022-10-19T13:10:25.840Z,20.90
2022-10-19T13:14:06.312Z,20.80
2022-10-19T13:17:02.916Z,20.80
2022-10-19T13:19:51.230Z,20.70
2022-10-19T13:22:38.804Z,20.80
2022-10-19T13:25:43.434Z,20.90
2022-10-19T13:28:39.169Z,21.00
2022-10-19T13:31:36.252Z,21.00
2022-10-19T13:34:25.590Z,21.00
2022-10-19T13:37:13.599Z,21.00
2022-10-19T13:40:14.304Z,21.10
2022-10-19T13:43:02.359Z,21.00
2022-10-19T13:46:10.807Z,20.90
2022-10-19T13:49:20.984Z,20.90
2022-10-19T13:52:30.011Z,20.90
2022-10-19T13:55:59.591Z,20.90
2022-10-19T13:59:30.606Z,20.90
2022-10-19T14:02:42.541Z,20.90
2022-10-19T14:06:44.105Z,20.80
2022-10-19T14:10:03.200Z,20.80
2022-10-19T14:12:51.870Z,20.80
2022-10-19T14:15:39.375Z,20.90
2022-10-19T14:18:30.044Z,20.60
2022-10-19T14:21:35.594Z,20.30
2022-10-19T14:24:37.106Z,20.20
2022-10-19T14:27:25.741Z,20.00
2022-10-19T14:30:25.659Z,19.90
2022-10-19T14:33:18.010Z,19.80
2022-10-19T14:36:14.885Z,19.70
2022-10-19T14:39:02.950Z,19.60
2022-10-19T14:41:56.645Z,19.60
2022-10-19T14:44:44.979Z,19.70
2022-10-19T14:47:32.668Z,19.70
2022-10-19T14:50:49.194Z,19.70
2022-10-19T14:53:54.146Z,19.70
2022-10-19T14:57:09.230Z,19.70
2022-10-19T15:00:22.915Z,19.50
2022-10-19T15:03:20.430Z,19.30
2022-10-19T15:06:09.020Z,19.30
2022-10-19T15:09:12.162Z,19.30
2022-10-19T15:12:18.035Z,19.40
2022-10-19T15:15:32.260Z,19.40
2022-10-19T15:18:47.574Z,19.50
2022-10-19T15:21:33.847Z,19.40
2022-10-19T15:24:31.695Z,19.40
2022-10-19T15:27:23.120Z,19.30
2022-10-19T15:30:22.850Z,19.30
2022-10-19T15:33:15.506Z,19.10
2022-10-19T15:36:17.574Z,18.90
2022-10-19T15:39:24.470Z,18.70
2022-10-19T15:42:41.181Z,18.50
2022-10-19T15:45:39.114Z,18.40
2022-10-19T15:48:51.069Z,18.30
2022-10-19T15:51:45.759Z,18.10
2022-10-19T15:54:33.532Z,17.80
2022-10-19T15:57:39.011Z,17.70
2022-10-19T16:00:30.300Z,17.50
2022-10-19T16:03:17.856Z,17.30
2022-10-19T16:06:05.737Z,17.20
2022-10-19T16:08:56.709Z,17.00
2022-10-19T16:11:44.906Z,16.90
2022-10-19T16:14:35.740Z,16.80
2022-10-19T16:17:24.405Z,16.70
2022-10-19T16:20:12.964Z,16.50
2022-10-19T16:23:00.442Z,16.40
2022-10-19T16:25:47.847Z,16.30
2022-10-19T16:28:36.604Z,16.20
2022-10-19T16:31:24.634Z,16.20
2022-10-19T16:34:12.310Z,16.10
2022-10-19T16:37:05.864Z,15.90
2022-10-19T16:39:54.616Z,15.80
2022-10-19T16:42:42.085Z,15.70
2022-10-19T16:45:30.289Z,15.70
2022-10-19T16:48:23.879Z,15.70
2022-10-19T16:51:28.205Z,15.70
2022-10-19T16:54:15.721Z,15.70
2022-10-19T16:57:08.735Z,15.60
2022-10-19T16:59:57.442Z,15.40
2022-10-19T17:02:46.490Z,15.30
2022-10-19T17:05:38.815Z,15.30
2022-10-19T17:08:36.877Z,15.30
2022-10-19T17:11:35.835Z,15.20
2022-10-19T17:14:23.323Z,15.10
2022-10-19T17:17:11.906Z,15.00
2022-10-19T17:19:59.432Z,14.90
2022-10-19T17:22:47.824Z,14.90
2022-10-19T17:25:35.255Z,14.90
2022-10-19T17:28:24.187Z,14.80
2022-10-19T17:31:15.037Z,14.80
2022-10-19T17:34:04.305Z,14.80
2022-10-19T17:36:51.822Z,14.70
2022-10-19T17:39:39.286Z,14.60
2022-10-19T17:42:26.868Z,14.60
2022-10-19T17:45:14.367Z,14.50
2022-10-19T17:48:01.770Z,14.50
2022-10-19T17:51:04.494Z,14.40
2022-10-19T17:53:51.922Z,14.40
2022-10-19T17:56:40.519Z,14.40
2022-10-19T17:59:34.693Z,14.30
2022-10-19T18:02:22.528Z,14.30
2022-10-19T18:05:10.144Z,14.20
2022-10-19T18:07:57.595Z,14.10
2022-10-19T18:10:44.960Z,14.10
2022-10-19T18:13:34.531Z,14.00
2022-10-19T18:16:27.495Z,13.90
2022-10-19T18:19:17.040Z,13.90
2022-10-19T18:22:04.606Z,13.90
2022-10-19T18:24:52.212Z,13.80
2022-10-19T18:27:39.800Z,13.80
2022-10-19T18:30:27.866Z,13.80
2022-10-19T18:33:15.362Z,13.80
2022-10-19T18:36:04.509Z,13.90
2022-10-19T18:38:54.807Z,13.90
2022-10-19T18:41:42.597Z,13.90
2022-10-19T18:44:33.549Z,13.90
2022-10-19T18:47:21.365Z,13.90
2022-10-19T18:50:09.691Z,13.90
2022-10-19T18:52:57.255Z,13.90
2022-10-19T18:55:45.744Z,13.90
2022-10-19T18:58:34.561Z,13.80
2022-10-19T19:01:26.702Z,13.80
2022-10-19T19:04:14.595Z,13.80
2022-10-19T19:07:02.070Z,13.70
2022-10-19T19:09:51.385Z,13.70
2022-10-19T19:12:38.912Z,13.70
2022-10-19T19:15:26.370Z,13.70
2022-10-19T19:18:13.789Z,13.60
2022-10-19T19:21:02.920Z,13.60
2022-10-19T19:23:52.385Z,13.60
2022-10-19T19:26:44.771Z,13.60
2022-10-19T19:29:32.325Z,13.60
2022-10-19T19:32:19.845Z,13.60
2022-10-19T19:35:07.495Z,13.60
2022-10-19T19:37:54.871Z,13.60
2022-10-19T19:40:45.885Z,13.50
2022-10-19T19:43:37.015Z,13.50
2022-10-19T19:46:24.708Z,13.40
2022-10-19T19:49:12.565Z,13.40
2022-10-19T19:52:00.079Z,13.30
2022-10-19T19:54:47.500Z,13.20
2022-10-19T19:57:35.165Z,13.20
2022-10-19T20:00:24.425Z,13.10
2022-10-19T20:03:13.428Z,13.10
2022-10-19T20:06:05.984Z,13.00
2022-10-19T20:08:55.434Z,13.00
2022-10-19T20:11:44.384Z,12.90
2022-10-19T20:14:31.791Z,12.80
2022-10-19T20:17:23.786Z,12.80
2022-10-19T20:20:14.342Z,12.70
2022-10-19T20:23:01.775Z,12.60
2022-10-19T20:25:49.255Z,12.60
2022-10-19T20:28:36.740Z,12.50
2022-10-19T20:31:25.496Z,12.40
2022-10-19T20:34:18.554Z,12.30
2022-10-19T20:37:09.945Z,12.20
2022-10-19T20:39:57.405Z,12.20
2022-10-19T20:42:45.537Z,12.10
2022-10-19T20:45:32.970Z,12.00
2022-10-19T20:48:20.418Z,11.90
2022-10-19T20:51:12.220Z,11.90
2022-10-19T20:54:03.606Z,11.80
2022-10-19T20:56:51.905Z,11.80
2022-10-19T20:59:39.695Z,11.70
2022-10-19T21:02:27.216Z,11.60
2022-10-19T21:05:15.210Z,11.60
2022-10-19T21:08:02.780Z,11.60
2022-10-19T21:10:50.220Z,11.60
2022-10-19T21:13:37.672Z,11.50
2022-10-19T21:16:45.144Z,11.50
2022-10-19T21:19:32.626Z,11.40
2022-10-19T21:22:20.136Z,11.40
2022-10-19T21:25:10.570Z,11.30
2022-10-19T21:27:58.044Z,11.30
2022-10-19T21:30:45.521Z,11.20
2022-10-19T21:33:33.346Z,11.20
2022-10-19T21:36:22.830Z,11.20
2022-10-19T21:39:10.370Z,11.20
2022-10-19T21:41:58.212Z,11.10
2022-10-19T21:44:45.651Z,11.10
2022-10-19T21:47:33.327Z,11.10
2022-10-19T21:50:21.145Z,11.10
2022-10-19T21:53:08.756Z,11.00
2022-10-19T21:56:00.003Z,11.00
2022-10-19T21:58:50.294Z,11.00
2022-10-19T22:01:40.366Z,10.90
2022-10-19T22:04:29.495Z,10.80
2022-10-19T22:07:16.968Z,10.90
2022-10-19T22:10:05.486Z,10.90
2022-10-19T22:12:52.989Z,10.90
2022-10-19T22:15:41.490Z,10.90
2022-10-19T22:18:29.014Z,11.00
2022-10-19T22:21:24.624Z,11.00
2022-10-19T22:24:15.584Z,11.00
2022-10-19T22:27:03.070Z,11.10
2022-10-19T22:29:53.828Z,11.00
2022-10-19T22:32:41.261Z,11.00
2022-10-19T22:35:28.881Z,11.00
2022-10-19T22:38:16.305Z,11.10
2022-10-19T22:41:04.040Z,11.00
2022-10-19T22:43:51.550Z,11.00
2022-10-19T22:46:39.000Z,11.00
2022-10-19T22:49:26.464Z,11.00
2022-10-19T22:52:13.905Z,11.00
2022-10-19T22:55:01.351Z,11.00
2022-10-19T23:01:12.109Z,11.00
2022-10-19T23:03:59.797Z,11.00
2022-10-19T23:06:47.661Z,11.00
2022-10-19T23:09:35.130Z,11.00
2022-10-19T23:12:22.663Z,11.00
2022-10-19T23:15:10.927Z,11.00
2022-10-19T23:17:58.875Z,11.00
2022-10-19T23:21:08.440Z,11.00
2022-10-19T23:23:56.192Z,11.00
2022-10-19T23:26:43.589Z,11.00
2022-10-19T23:29:31.150Z,11.00
2022-10-19T23:32:18.550Z,10.90
2022-10-19T23:35:08.733Z,10.90
2022-10-19T23:37:56.275Z,11.00
2022-10-19T23:40:44.955Z,11.00
2022-10-19T23:43:33.293Z,10.90
2022-10-19T23:46:21.136Z,10.90
2022-10-19T23:49:08.595Z,10.80
2022-10-19T23:51:58.349Z,10.80
2022-10-19T23:54:45.827Z,10.80
2022-10-19T23:57:33.520Z,10.80
